Wilson Gdynia — 8PSA — position and weather

sailwx.info

Track history (hours):
 
Tides and Currents Weather Stations Pressure Air Temp Water Temp Dewpoint Dewpoint Depression Visibility Wind Speed Wind Dir Waves Ship Positions

Wilson Gdynia

Last reported at 2014-Nov-29 01:34 UTC. Time now 2014-Nov-29 02:31 UTC.
Position N 52°52' E 001°39'.

Length 88 m; draft 3.1 m.

Type: Cargo ship. MMSI: 314192000.

Date/timePositionNaut miles runAvg speedWind from/ knotsBaromVisibWave heightAir tempDewpointWater temp
2014-Nov-29 01:34N 52°52' E 001°39'7 7.3
2014-Nov-29 00:33N 52°46' E 001°47'6 6.4
2014-Nov-28 23:33N 52°42' E 001°55'6 5.5
2014-Nov-28 22:33N 52°36' E 001°55'6 6.1
2014-Nov-28 21:34N 52°30' E 001°55'8 7.9
2014-Nov-28 20:33N 52°22' E 001°53'8 8.5
2014-Nov-28 19:34N 52°14' E 001°49'9 9.4
2014-Nov-28 18:34N 52°05' E 001°45'1010.3
2014-Nov-28 17:34N 51°55' E 001°40'1110.8
2014-Nov-28 16:33N 51°47' E 001°29'1111.1
2014-Nov-28 15:33N 51°39' E 001°16'1010.1
2014-Nov-28 14:34N 51°33' E 001°04'9 8.5
2014-Nov-28 13:33N 51°29' E 000°51'9 9.1
2014-Nov-28 12:33N 51°30' E 000°36'9 9.5
2014-Nov-28 11:34N 51°27' E 000°22'3 3.1
2014-Nov-28 10:34N 51°28' E 000°17'0 0.0
2014-Nov-28 09:34N 51°28' E 000°17'0 0.0
2014-Nov-28 08:34N 51°28' E 000°17'0 0.0
2014-Nov-28 07:34N 51°28' E 000°17'0 0.0
2014-Nov-28 06:34N 51°28' E 000°17'0 0.0
2014-Nov-28 05:34N 51°28' E 000°17'0 0.0
2014-Nov-28 04:34N 51°28' E 000°17'0 0.0
2014-Nov-28 03:34N 51°28' E 000°17'0 0.0
2014-Nov-28 02:34N 51°28' E 000°17'0 0.0
2014-Nov-28 01:34N 51°28' E 000°17'0 0.0
2014-Nov-28 00:34N 51°28' E 000°17'0 0.0
2014-Nov-27 23:34N 51°28' E 000°17'0 0.0
2014-Nov-27 22:34N 51°28' E 000°17'0 0.0
2014-Nov-27 21:34N 51°28' E 000°17'0 0.0
2014-Nov-27 20:34N 51°28' E 000°17'0 0.0
2014-Nov-27 19:34N 51°28' E 000°17'0 0.0
2014-Nov-27 18:34N 51°28' E 000°17'0 0.0
2014-Nov-27 17:34N 51°28' E 000°17'0 0.0
2014-Nov-27 16:34N 51°28' E 000°17'0 0.0
2014-Nov-27 15:34N 51°28' E 000°17'0 0.0
2014-Nov-27 14:34N 51°28' E 000°17'0 0.0
2014-Nov-27 13:34N 51°28' E 000°17'0 0.0
2014-Nov-27 12:34N 51°28' E 000°17'0 0.0
2014-Nov-27 11:34N 51°28' E 000°17'0 0.0
2014-Nov-27 10:34N 51°28' E 000°17'0 0.0
2014-Nov-27 09:34N 51°28' E 000°17'0 0.0
2014-Nov-27 08:34N 51°28' E 000°17'0 0.0
2014-Nov-27 07:33N 51°28' E 000°17'0 0.0
2014-Nov-27 06:34N 51°28' E 000°17'0 0.0
2014-Nov-27 05:34N 51°28' E 000°17'0 0.0
2014-Nov-27 04:34N 51°28' E 000°17'0 0.0
2014-Nov-27 03:34N 51°28' E 000°17'0 0.0
2014-Nov-27 02:34N 51°28' E 000°17'0 0.0
2014-Nov-27 01:34N 51°28' E 000°17'0 0.0
2014-Nov-27 00:34N 51°28' E 000°17'0 0.0
2014-Nov-26 23:34N 51°28' E 000°17'0 0.0
2014-Nov-26 22:34N 51°28' E 000°17'0 0.0
2014-Nov-26 21:33N 51°28' E 000°17'0 0.0
2014-Nov-26 20:34N 51°28' E 000°17'0 0.0
2014-Nov-26 19:34N 51°28' E 000°17'0 0.0
2014-Nov-26 18:34N 51°28' E 000°17'0 0.0
2014-Nov-26 17:34N 51°28' E 000°17'0 0.0
2014-Nov-26 16:34N 51°28' E 000°17'0 0.0
2014-Nov-26 15:34N 51°28' E 000°17'0 0.0
2014-Nov-26 14:34N 51°28' E 000°17'0 0.0
2014-Nov-26 13:34N 51°28' E 000°17'0 0.0
2014-Nov-26 12:34N 51°28' E 000°17'0 0.0
2014-Nov-26 11:34N 51°28' E 000°17'0 0.0
2014-Nov-26 10:34N 51°28' E 000°17'5 5.3
2014-Nov-26 09:34N 51°27' E 000°26'8 8.2
2014-Nov-26 08:34N 51°30' E 000°38'9 8.8
2014-Nov-26 07:33N 51°30' E 000°52'7 7.3
2014-Nov-26 06:33N 51°30' E 001°04'8 8.0
2014-Nov-26 05:34N 51°29' E 001°17'8 7.6
2014-Nov-26 04:34N 51°27' E 001°29'10 9.8
2014-Nov-26 03:33N 51°19' E 001°36'1211.7
2014-Nov-26 02:34N 51°07' E 001°40'1211.8
2014-Nov-26 01:34N 50°58' E 001°28'  
Track history (hours):
 
Tides and Currents Weather Stations Pressure Air Temp Water Temp Dewpoint Dewpoint Depression Visibility Wind Speed Wind Dir Waves Ship Positions

Wilson Gdynia

Last reported at 2014-Nov-29 01:34 UTC. Time now 2014-Nov-29 02:31 UTC.
Position N 52°52' E 001°39'.

Length 88 m; draft 3.1 m.

Type: Cargo ship. MMSI: 314192000.

Date/timePositionNaut miles runAvg speedWind from/ knotsBaromVisibWave heightAir tempDewpointWater temp
2014-Nov-29 01:34N 52°52' E 001°39'7 7.3
2014-Nov-29 00:33N 52°46' E 001°47'6 6.4
2014-Nov-28 23:33N 52°42' E 001°55'6 5.5
2014-Nov-28 22:33N 52°36' E 001°55'6 6.1
2014-Nov-28 21:34N 52°30' E 001°55'8 7.9
2014-Nov-28 20:33N 52°22' E 001°53'8 8.5
2014-Nov-28 19:34N 52°14' E 001°49'9 9.4
2014-Nov-28 18:34N 52°05' E 001°45'1010.3
2014-Nov-28 17:34N 51°55' E 001°40'1110.8
2014-Nov-28 16:33N 51°47' E 001°29'1111.1
2014-Nov-28 15:33N 51°39' E 001°16'1010.1
2014-Nov-28 14:34N 51°33' E 001°04'9 8.5
2014-Nov-28 13:33N 51°29' E 000°51'9 9.1
2014-Nov-28 12:33N 51°30' E 000°36'9 9.5
2014-Nov-28 11:34N 51°27' E 000°22'3 3.1
2014-Nov-28 10:34N 51°28' E 000°17'0 0.0
2014-Nov-28 09:34N 51°28' E 000°17'0 0.0
2014-Nov-28 08:34N 51°28' E 000°17'0 0.0
2014-Nov-28 07:34N 51°28' E 000°17'0 0.0
2014-Nov-28 06:34N 51°28' E 000°17'0 0.0
2014-Nov-28 05:34N 51°28' E 000°17'0 0.0
2014-Nov-28 04:34N 51°28' E 000°17'0 0.0
2014-Nov-28 03:34N 51°28' E 000°17'0 0.0
2014-Nov-28 02:34N 51°28' E 000°17'0 0.0
2014-Nov-28 01:34N 51°28' E 000°17'0 0.0
2014-Nov-28 00:34N 51°28' E 000°17'0 0.0
2014-Nov-27 23:34N 51°28' E 000°17'0 0.0
2014-Nov-27 22:34N 51°28' E 000°17'0 0.0
2014-Nov-27 21:34N 51°28' E 000°17'0 0.0
2014-Nov-27 20:34N 51°28' E 000°17'0 0.0
2014-Nov-27 19:34N 51°28' E 000°17'0 0.0
2014-Nov-27 18:34N 51°28' E 000°17'0 0.0
2014-Nov-27 17:34N 51°28' E 000°17'0 0.0
2014-Nov-27 16:34N 51°28' E 000°17'0 0.0
2014-Nov-27 15:34N 51°28' E 000°17'0 0.0
2014-Nov-27 14:34N 51°28' E 000°17'0 0.0
2014-Nov-27 13:34N 51°28' E 000°17'0 0.0
2014-Nov-27 12:34N 51°28' E 000°17'0 0.0
2014-Nov-27 11:34N 51°28' E 000°17'0 0.0
2014-Nov-27 10:34N 51°28' E 000°17'0 0.0
2014-Nov-27 09:34N 51°28' E 000°17'0 0.0
2014-Nov-27 08:34N 51°28' E 000°17'0 0.0
2014-Nov-27 07:33N 51°28' E 000°17'0 0.0
2014-Nov-27 06:34N 51°28' E 000°17'0 0.0
2014-Nov-27 05:34N 51°28' E 000°17'0 0.0
2014-Nov-27 04:34N 51°28' E 000°17'0 0.0
2014-Nov-27 03:34N 51°28' E 000°17'0 0.0
2014-Nov-27 02:34N 51°28' E 000°17'0 0.0
2014-Nov-27 01:34N 51°28' E 000°17'0 0.0
2014-Nov-27 00:34N 51°28' E 000°17'0 0.0
2014-Nov-26 23:34N 51°28' E 000°17'0 0.0
2014-Nov-26 22:34N 51°28' E 000°17'0 0.0
2014-Nov-26 21:33N 51°28' E 000°17'0 0.0
2014-Nov-26 20:34N 51°28' E 000°17'0 0.0
2014-Nov-26 19:34N 51°28' E 000°17'0 0.0
2014-Nov-26 18:34N 51°28' E 000°17'0 0.0
2014-Nov-26 17:34N 51°28' E 000°17'0 0.0
2014-Nov-26 16:34N 51°28' E 000°17'0 0.0
2014-Nov-26 15:34N 51°28' E 000°17'0 0.0
2014-Nov-26 14:34N 51°28' E 000°17'0 0.0
2014-Nov-26 13:34N 51°28' E 000°17'0 0.0
2014-Nov-26 12:34N 51°28' E 000°17'0 0.0
2014-Nov-26 11:34N 51°28' E 000°17'0 0.0
2014-Nov-26 10:34N 51°28' E 000°17'5 5.3
2014-Nov-26 09:34N 51°27' E 000°26'8 8.2
2014-Nov-26 08:34N 51°30' E 000°38'9 8.8
2014-Nov-26 07:33N 51°30' E 000°52'7 7.3
2014-Nov-26 06:33N 51°30' E 001°04'8 8.0
2014-Nov-26 05:34N 51°29' E 001°17'8 7.6
2014-Nov-26 04:34N 51°27' E 001°29'10 9.8
2014-Nov-26 03:33N 51°19' E 001°36'1211.7
2014-Nov-26 02:34N 51°07' E 001°40'1211.8
2014-Nov-26 01:34N 50°58' E 001°28'  

Dump ship's entire track history